sensor_id;sensor_type;location;lat;lon;timestamp;P1;durP1;ratioP1;P2;durP2;ratioP2
1350;SDS011;669;50.206;9.998;2023-07-20T00:00:46;4.07;;;3.77;;
1350;SDS011;669;50.206;9.998;2023-07-20T00:03:16;3.77;;;3.10;;
1350;SDS011;669;50.206;9.998;2023-07-20T00:05:45;10.17;;;4.40;;
1350;SDS011;669;50.206;9.998;2023-07-20T00:08:14;12.80;;;4.43;;
1350;SDS011;669;50.206;9.998;2023-07-20T00:10:42;4.47;;;3.10;;
1350;SDS011;669;50.206;9.998;2023-07-20T00:13:10;7.00;;;3.83;;
1350;SDS011;669;50.206;9.998;2023-07-20T00:15:39;12.07;;;3.90;;
1350;SDS011;669;50.206;9.998;2023-07-20T00:18:08;10.60;;;4.30;;
1350;SDS011;669;50.206;9.998;2023-07-20T00:20:36;7.13;;;4.23;;
1350;SDS011;669;50.206;9.998;2023-07-20T00:23:04;6.73;;;3.17;;
1350;SDS011;669;50.206;9.998;2023-07-20T00:25:32;4.90;;;2.97;;
1350;SDS011;669;50.206;9.998;2023-07-20T00:28:01;3.43;;;3.23;;
1350;SDS011;669;50.206;9.998;2023-07-20T00:30:29;7.73;;;4.00;;
1350;SDS011;669;50.206;9.998;2023-07-20T00:32:57;5.13;;;3.90;;
1350;SDS011;669;50.206;9.998;2023-07-20T00:35:26;3.03;;;2.83;;
1350;SDS011;669;50.206;9.998;2023-07-20T00:37:54;3.30;;;3.00;;
1350;SDS011;669;50.206;9.998;2023-07-20T00:40:22;4.30;;;2.93;;
1350;SDS011;669;50.206;9.998;2023-07-20T00:42:50;5.00;;;3.33;;
1350;SDS011;669;50.206;9.998;2023-07-20T00:45:18;3.60;;;3.27;;
1350;SDS011;669;50.206;9.998;2023-07-20T00:47:46;3.27;;;3.07;;
1350;SDS011;669;50.206;9.998;2023-07-20T00:50:14;3.93;;;3.53;;
1350;SDS011;669;50.206;9.998;2023-07-20T00:52:44;4.17;;;3.30;;
1350;SDS011;669;50.206;9.998;2023-07-20T00:55:12;4.10;;;3.30;;
1350;SDS011;669;50.206;9.998;2023-07-20T00:57:40;3.00;;;2.80;;
1350;SDS011;669;50.206;9.998;2023-07-20T01:00:08;5.70;;;4.00;;
1350;SDS011;669;50.206;9.998;2023-07-20T01:02:37;3.70;;;3.40;;
1350;SDS011;669;50.206;9.998;2023-07-20T01:05:05;8.03;;;3.97;;
1350;SDS011;669;50.206;9.998;2023-07-20T01:07:35;5.97;;;4.63;;
1350;SDS011;669;50.206;9.998;2023-07-20T01:10:09;6.47;;;4.20;;
1350;SDS011;669;50.206;9.998;2023-07-20T01:12:41;6.17;;;2.87;;
1350;SDS011;669;50.206;9.998;2023-07-20T01:15:10;3.53;;;3.30;;
1350;SDS011;669;50.206;9.998;2023-07-20T01:17:38;2.97;;;2.77;;
1350;SDS011;669;50.206;9.998;2023-07-20T01:20:07;5.00;;;4.50;;
1350;SDS011;669;50.206;9.998;2023-07-20T01:22:47;7.20;;;3.30;;
1350;SDS011;669;50.206;9.998;2023-07-20T01:25:39;10.73;;;4.27;;
1350;SDS011;669;50.206;9.998;2023-07-20T01:28:35;6.63;;;3.40;;
1350;SDS011;669;50.206;9.998;2023-07-20T01:31:14;6.27;;;3.10;;
1350;SDS011;669;50.206;9.998;2023-07-20T01:33:48;12.10;;;3.83;;
1350;SDS011;669;50.206;9.998;2023-07-20T01:36:18;7.70;;;3.90;;
1350;SDS011;669;50.206;9.998;2023-07-20T01:38:49;5.03;;;3.47;;
1350;SDS011;669;50.206;9.998;2023-07-20T01:41:18;3.17;;;2.97;;
1350;SDS011;669;50.206;9.998;2023-07-20T01:43:46;3.73;;;3.33;;
1350;SDS011;669;50.206;9.998;2023-07-20T01:46:15;3.40;;;3.20;;
1350;SDS011;669;50.206;9.998;2023-07-20T01:48:43;2.87;;;2.77;;
1350;SDS011;669;50.206;9.998;2023-07-20T01:51:11;7.40;;;3.53;;
1350;SDS011;669;50.206;9.998;2023-07-20T01:53:39;2.70;;;2.60;;
1350;SDS011;669;50.206;9.998;2023-07-20T01:56:07;14.43;;;3.70;;
1350;SDS011;669;50.206;9.998;2023-07-20T01:58:35;29.23;;;5.60;;
1350;SDS011;669;50.206;9.998;2023-07-20T02:01:03;7.67;;;3.77;;
1350;SDS011;669;50.206;9.998;2023-07-20T02:03:33;5.97;;;3.00;;
1350;SDS011;669;50.206;9.998;2023-07-20T02:06:02;6.43;;;2.93;;
1350;SDS011;669;50.206;9.998;2023-07-20T02:08:30;3.20;;;2.83;;
1350;SDS011;669;50.206;9.998;2023-07-20T02:10:58;2.90;;;2.63;;
1350;SDS011;669;50.206;9.998;2023-07-20T02:13:25;3.00;;;2.37;;
1350;SDS011;669;50.206;9.998;2023-07-20T02:15:53;3.63;;;3.17;;
1350;SDS011;669;50.206;9.998;2023-07-20T02:18:21;8.57;;;2.97;;
1350;SDS011;669;50.206;9.998;2023-07-20T02:20:51;9.77;;;2.97;;
1350;SDS011;669;50.206;9.998;2023-07-20T02:23:20;4.63;;;3.00;;
1350;SDS011;669;50.206;9.998;2023-07-20T02:25:48;2.83;;;2.60;;
1350;SDS011;669;50.206;9.998;2023-07-20T02:28:16;2.93;;;2.73;;
1350;SDS011;669;50.206;9.998;2023-07-20T02:30:44;2.30;;;2.07;;
1350;SDS011;669;50.206;9.998;2023-07-20T02:33:12;2.90;;;2.73;;
1350;SDS011;669;50.206;9.998;2023-07-20T02:35:40;4.50;;;2.27;;
1350;SDS011;669;50.206;9.998;2023-07-20T02:38:09;2.93;;;2.73;;
1350;SDS011;669;50.206;9.998;2023-07-20T02:40:37;3.43;;;3.23;;
1350;SDS011;669;50.206;9.998;2023-07-20T02:43:05;2.47;;;2.37;;
1350;SDS011;669;50.206;9.998;2023-07-20T02:45:34;2.17;;;2.07;;
1350;SDS011;669;50.206;9.998;2023-07-20T02:48:03;2.17;;;2.07;;
1350;SDS011;669;50.206;9.998;2023-07-20T02:50:34;2.40;;;2.30;;
1350;SDS011;669;50.206;9.998;2023-07-20T02:53:02;2.27;;;2.17;;
1350;SDS011;669;50.206;9.998;2023-07-20T02:55:32;2.07;;;1.87;;
1350;SDS011;669;50.206;9.998;2023-07-20T02:57:59;2.47;;;2.27;;
1350;SDS011;669;50.206;9.998;2023-07-20T03:00:28;2.27;;;2.07;;
1350;SDS011;669;50.206;9.998;2023-07-20T03:02:56;3.97;;;2.07;;
1350;SDS011;669;50.206;9.998;2023-07-20T03:05:24;3.53;;;2.07;;
1350;SDS011;669;50.206;9.998;2023-07-20T03:07:53;7.10;;;2.60;;
1350;SDS011;669;50.206;9.998;2023-07-20T03:10:22;2.40;;;2.20;;
1350;SDS011;669;50.206;9.998;2023-07-20T03:12:51;5.10;;;2.00;;
1350;SDS011;669;50.206;9.998;2023-07-20T03:15:19;3.67;;;2.57;;
1350;SDS011;669;50.206;9.998;2023-07-20T03:17:47;1.80;;;1.70;;
1350;SDS011;669;50.206;9.998;2023-07-20T03:20:15;5.70;;;2.10;;
1350;SDS011;669;50.206;9.998;2023-07-20T03:22:43;3.63;;;2.07;;
1350;SDS011;669;50.206;9.998;2023-07-20T03:25:11;3.63;;;2.60;;
1350;SDS011;669;50.206;9.998;2023-07-20T03:27:39;3.47;;;2.67;;
1350;SDS011;669;50.206;9.998;2023-07-20T03:30:09;3.73;;;1.80;;
1350;SDS011;669;50.206;9.998;2023-07-20T03:32:37;2.00;;;1.90;;
1350;SDS011;669;50.206;9.998;2023-07-20T03:35:06;3.83;;;2.50;;
1350;SDS011;669;50.206;9.998;2023-07-20T03:37:34;2.00;;;1.50;;
1350;SDS011;669;50.206;9.998;2023-07-20T03:40:03;2.97;;;1.50;;
1350;SDS011;669;50.206;9.998;2023-07-20T03:42:33;2.07;;;1.97;;
1350;SDS011;669;50.206;9.998;2023-07-20T03:45:02;1.83;;;1.73;;
1350;SDS011;669;50.206;9.998;2023-07-20T03:47:33;3.60;;;1.53;;
1350;SDS011;669;50.206;9.998;2023-07-20T03:50:01;2.63;;;1.90;;
1350;SDS011;669;50.206;9.998;2023-07-20T03:52:31;13.43;;;2.60;;
1350;SDS011;669;50.206;9.998;2023-07-20T03:54:59;7.30;;;3.03;;
1350;SDS011;669;50.206;9.998;2023-07-20T03:57:27;5.70;;;2.37;;
1350;SDS011;669;50.206;9.998;2023-07-20T03:59:58;3.43;;;3.17;;
1350;SDS011;669;50.206;9.998;2023-07-20T04:02:26;5.23;;;2.53;;
1350;SDS011;669;50.206;9.998;2023-07-20T04:04:55;1.63;;;1.60;;
1350;SDS011;669;50.206;9.998;2023-07-20T04:07:23;3.87;;;2.43;;
1350;SDS011;669;50.206;9.998;2023-07-20T04:09:52;2.23;;;2.00;;
1350;SDS011;669;50.206;9.998;2023-07-20T04:12:20;2.40;;;2.23;;
1350;SDS011;669;50.206;9.998;2023-07-20T04:14:47;3.40;;;2.27;;
1350;SDS011;669;50.206;9.998;2023-07-20T04:17:16;4.23;;;2.43;;
1350;SDS011;669;50.206;9.998;2023-07-20T04:19:44;3.73;;;3.10;;
1350;SDS011;669;50.206;9.998;2023-07-20T04:22:13;3.77;;;2.33;;
1350;SDS011;669;50.206;9.998;2023-07-20T04:24:42;5.13;;;3.00;;
1350;SDS011;669;50.206;9.998;2023-07-20T04:27:10;6.67;;;2.80;;
1350;SDS011;669;50.206;9.998;2023-07-20T04:29:38;5.30;;;3.70;;
1350;SDS011;669;50.206;9.998;2023-07-20T04:32:06;9.90;;;4.10;;
1350;SDS011;669;50.206;9.998;2023-07-20T04:34:34;8.30;;;3.77;;
1350;SDS011;669;50.206;9.998;2023-07-20T04:37:03;9.80;;;3.77;;
1350;SDS011;669;50.206;9.998;2023-07-20T04:39:33;3.00;;;2.70;;
1350;SDS011;669;50.206;9.998;2023-07-20T04:42:01;3.20;;;2.90;;
1350;SDS011;669;50.206;9.998;2023-07-20T04:44:29;4.10;;;2.63;;
1350;SDS011;669;50.206;9.998;2023-07-20T04:46:57;3.20;;;2.87;;
1350;SDS011;669;50.206;9.998;2023-07-20T04:49:25;3.53;;;2.73;;
1350;SDS011;669;50.206;9.998;2023-07-20T04:51:53;4.20;;;3.03;;
1350;SDS011;669;50.206;9.998;2023-07-20T04:54:21;4.17;;;2.50;;
1350;SDS011;669;50.206;9.998;2023-07-20T04:56:50;6.90;;;2.90;;
1350;SDS011;669;50.206;9.998;2023-07-20T04:59:18;7.00;;;2.63;;
1350;SDS011;669;50.206;9.998;2023-07-20T05:01:46;5.77;;;2.97;;
1350;SDS011;669;50.206;9.998;2023-07-20T05:04:14;14.40;;;3.13;;
1350;SDS011;669;50.206;9.998;2023-07-20T05:06:44;6.50;;;3.17;;
1350;SDS011;669;50.206;9.998;2023-07-20T05:09:12;9.00;;;2.73;;
1350;SDS011;669;50.206;9.998;2023-07-20T05:11:40;9.03;;;3.43;;
1350;SDS011;669;50.206;9.998;2023-07-20T05:14:09;7.03;;;2.70;;
1350;SDS011;669;50.206;9.998;2023-07-20T05:16:37;4.83;;;2.77;;
1350;SDS011;669;50.206;9.998;2023-07-20T05:19:05;3.20;;;2.90;;
1350;SDS011;669;50.206;9.998;2023-07-20T05:21:33;3.50;;;3.20;;
1350;SDS011;669;50.206;9.998;2023-07-20T05:24:01;3.00;;;2.80;;
1350;SDS011;669;50.206;9.998;2023-07-20T05:26:29;3.73;;;2.80;;
1350;SDS011;669;50.206;9.998;2023-07-20T05:28:57;5.10;;;3.23;;
1350;SDS011;669;50.206;9.998;2023-07-20T05:31:27;3.87;;;2.53;;
1350;SDS011;669;50.206;9.998;2023-07-20T05:33:56;5.57;;;2.80;;
1350;SDS011;669;50.206;9.998;2023-07-20T05:36:24;3.40;;;3.10;;
1350;SDS011;669;50.206;9.998;2023-07-20T05:38:52;9.00;;;3.70;;
1350;SDS011;669;50.206;9.998;2023-07-20T05:41:20;4.53;;;2.53;;
1350;SDS011;669;50.206;9.998;2023-07-20T05:43:49;2.30;;;2.20;;
1350;SDS011;669;50.206;9.998;2023-07-20T05:46:16;3.57;;;2.70;;
1350;SDS011;669;50.206;9.998;2023-07-20T05:48:46;3.40;;;3.20;;
1350;SDS011;669;50.206;9.998;2023-07-20T05:51:14;3.13;;;2.83;;
1350;SDS011;669;50.206;9.998;2023-07-20T05:53:42;3.43;;;3.10;;
1350;SDS011;669;50.206;9.998;2023-07-20T05:56:10;6.43;;;3.40;;
1350;SDS011;669;50.206;9.998;2023-07-20T05:58:38;3.53;;;3.20;;
1350;SDS011;669;50.206;9.998;2023-07-20T06:01:06;3.53;;;3.23;;
1350;SDS011;669;50.206;9.998;2023-07-20T06:03:34;3.73;;;2.93;;
1350;SDS011;669;50.206;9.998;2023-07-20T06:06:04;5.10;;;2.90;;
1350;SDS011;669;50.206;9.998;2023-07-20T06:08:32;3.27;;;2.90;;
1350;SDS011;669;50.206;9.998;2023-07-20T06:11:00;3.20;;;2.90;;
1350;SDS011;669;50.206;9.998;2023-07-20T06:13:29;5.30;;;2.60;;
1350;SDS011;669;50.206;9.998;2023-07-20T06:15:57;4.43;;;3.53;;
1350;SDS011;669;50.206;9.998;2023-07-20T06:18:25;4.07;;;2.80;;
1350;SDS011;669;50.206;9.998;2023-07-20T06:20:53;3.63;;;3.33;;
1350;SDS011;669;50.206;9.998;2023-07-20T06:23:22;3.23;;;3.00;;
1350;SDS011;669;50.206;9.998;2023-07-20T06:25:51;3.87;;;3.47;;
1350;SDS011;669;50.206;9.998;2023-07-20T06:28:19;3.67;;;3.47;;
1350;SDS011;669;50.206;9.998;2023-07-20T06:30:47;3.43;;;3.10;;
1350;SDS011;669;50.206;9.998;2023-07-20T06:33:15;3.27;;;2.80;;
1350;SDS011;669;50.206;9.998;2023-07-20T06:35:43;2.73;;;2.50;;
1350;SDS011;669;50.206;9.998;2023-07-20T06:38:11;4.30;;;2.53;;
1350;SDS011;669;50.206;9.998;2023-07-20T06:40:43;5.50;;;3.20;;
1350;SDS011;669;50.206;9.998;2023-07-20T06:43:13;4.63;;;2.83;;
1350;SDS011;669;50.206;9.998;2023-07-20T06:45:44;5.93;;;2.80;;
1350;SDS011;669;50.206;9.998;2023-07-20T06:48:12;3.00;;;2.70;;
1350;SDS011;669;50.206;9.998;2023-07-20T06:50:39;3.53;;;2.43;;
1350;SDS011;669;50.206;9.998;2023-07-20T06:53:07;6.20;;;2.60;;
1350;SDS011;669;50.206;9.998;2023-07-20T06:55:35;3.13;;;2.83;;
1350;SDS011;669;50.206;9.998;2023-07-20T06:58:09;5.33;;;2.80;;
1350;SDS011;669;50.206;9.998;2023-07-20T07:00:37;4.03;;;2.77;;
1350;SDS011;669;50.206;9.998;2023-07-20T07:03:05;4.90;;;2.53;;
1350;SDS011;669;50.206;9.998;2023-07-20T07:05:35;2.77;;;2.40;;
1350;SDS011;669;50.206;9.998;2023-07-20T07:08:04;3.53;;;3.13;;
1350;SDS011;669;50.206;9.998;2023-07-20T07:10:34;4.10;;;3.10;;
1350;SDS011;669;50.206;9.998;2023-07-20T07:13:03;4.30;;;2.70;;
1350;SDS011;669;50.206;9.998;2023-07-20T07:15:33;2.90;;;2.70;;
1350;SDS011;669;50.206;9.998;2023-07-20T07:18:02;10.03;;;3.27;;
1350;SDS011;669;50.206;9.998;2023-07-20T07:20:30;3.60;;;2.60;;
1350;SDS011;669;50.206;9.998;2023-07-20T07:22:58;2.70;;;2.50;;
1350;SDS011;669;50.206;9.998;2023-07-20T07:25:26;3.87;;;2.30;;
1350;SDS011;669;50.206;9.998;2023-07-20T07:27:54;3.53;;;3.07;;
1350;SDS011;669;50.206;9.998;2023-07-20T07:30:23;3.00;;;2.80;;
1350;SDS011;669;50.206;9.998;2023-07-20T07:32:52;2.73;;;2.50;;
1350;SDS011;669;50.206;9.998;2023-07-20T07:35:20;3.97;;;2.97;;
1350;SDS011;669;50.206;9.998;2023-07-20T07:37:48;8.23;;;2.87;;
1350;SDS011;669;50.206;9.998;2023-07-20T07:40:34;4.30;;;2.60;;
1350;SDS011;669;50.206;9.998;2023-07-20T07:43:02;2.60;;;2.40;;
1350;SDS011;669;50.206;9.998;2023-07-20T07:45:31;4.30;;;3.20;;
1350;SDS011;669;50.206;9.998;2023-07-20T07:48:04;3.87;;;3.33;;
1350;SDS011;669;50.206;9.998;2023-07-20T07:50:33;3.80;;;3.10;;
1350;SDS011;669;50.206;9.998;2023-07-20T07:53:01;2.83;;;2.63;;
1350;SDS011;669;50.206;9.998;2023-07-20T07:55:29;3.10;;;2.33;;
1350;SDS011;669;50.206;9.998;2023-07-20T07:57:57;2.20;;;2.10;;
1350;SDS011;669;50.206;9.998;2023-07-20T08:00:25;4.47;;;2.40;;
1350;SDS011;669;50.206;9.998;2023-07-20T08:02:53;3.10;;;2.90;;
1350;SDS011;669;50.206;9.998;2023-07-20T08:05:23;2.37;;;2.17;;
1350;SDS011;669;50.206;9.998;2023-07-20T08:07:52;5.90;;;2.73;;
1350;SDS011;669;50.206;9.998;2023-07-20T08:10:20;3.70;;;2.57;;
1350;SDS011;669;50.206;9.998;2023-07-20T08:12:49;2.67;;;2.47;;
1350;SDS011;669;50.206;9.998;2023-07-20T08:15:17;2.80;;;2.33;;
1350;SDS011;669;50.206;9.998;2023-07-20T08:17:45;2.90;;;2.70;;
1350;SDS011;669;50.206;9.998;2023-07-20T08:20:15;4.40;;;4.00;;
1350;SDS011;669;50.206;9.998;2023-07-20T08:22:45;3.90;;;3.60;;
1350;SDS011;669;50.206;9.998;2023-07-20T08:25:14;3.37;;;3.03;;
1350;SDS011;669;50.206;9.998;2023-07-20T08:27:42;4.20;;;3.00;;
1350;SDS011;669;50.206;9.998;2023-07-20T08:30:12;3.80;;;3.50;;
1350;SDS011;669;50.206;9.998;2023-07-20T08:32:40;3.53;;;3.30;;
1350;SDS011;669;50.206;9.998;2023-07-20T08:35:08;3.13;;;2.83;;
1350;SDS011;669;50.206;9.998;2023-07-20T08:37:36;7.70;;;3.50;;
1350;SDS011;669;50.206;9.998;2023-07-20T08:40:06;2.70;;;2.50;;
1350;SDS011;669;50.206;9.998;2023-07-20T08:42:35;3.70;;;3.30;;
1350;SDS011;669;50.206;9.998;2023-07-20T08:45:05;3.47;;;2.90;;
1350;SDS011;669;50.206;9.998;2023-07-20T08:47:35;4.13;;;3.00;;
1350;SDS011;669;50.206;9.998;2023-07-20T08:50:05;3.20;;;3.00;;
1350;SDS011;669;50.206;9.998;2023-07-20T08:52:35;3.20;;;3.00;;
1350;SDS011;669;50.206;9.998;2023-07-20T08:55:03;2.87;;;2.67;;
1350;SDS011;669;50.206;9.998;2023-07-20T08:57:34;3.10;;;2.90;;
1350;SDS011;669;50.206;9.998;2023-07-20T09:00:03;3.40;;;2.90;;
1350;SDS011;669;50.206;9.998;2023-07-20T09:02:35;2.87;;;2.67;;
1350;SDS011;669;50.206;9.998;2023-07-20T09:07:36;3.20;;;2.93;;
1350;SDS011;669;50.206;9.998;2023-07-20T09:10:06;2.87;;;2.67;;
1350;SDS011;669;50.206;9.998;2023-07-20T09:12:35;3.60;;;3.30;;
1350;SDS011;669;50.206;9.998;2023-07-20T09:15:04;3.73;;;2.50;;
1350;SDS011;669;50.206;9.998;2023-07-20T09:17:33;3.93;;;2.70;;
1350;SDS011;669;50.206;9.998;2023-07-20T09:20:02;4.77;;;2.90;;
1350;SDS011;669;50.206;9.998;2023-07-20T09:22:34;2.40;;;2.20;;
1350;SDS011;669;50.206;9.998;2023-07-20T09:25:02;5.30;;;3.07;;
1350;SDS011;669;50.206;9.998;2023-07-20T09:27:37;5.23;;;2.77;;
1350;SDS011;669;50.206;9.998;2023-07-20T09:30:07;2.43;;;2.27;;
1350;SDS011;669;50.206;9.998;2023-07-20T09:32:44;4.50;;;2.60;;
1350;SDS011;669;50.206;9.998;2023-07-20T09:35:16;3.13;;;2.53;;
1350;SDS011;669;50.206;9.998;2023-07-20T09:37:49;2.47;;;2.23;;
1350;SDS011;669;50.206;9.998;2023-07-20T09:40:39;2.67;;;2.40;;
1350;SDS011;669;50.206;9.998;2023-07-20T09:43:12;1.90;;;1.80;;
1350;SDS011;669;50.206;9.998;2023-07-20T09:45:43;5.07;;;2.10;;
1350;SDS011;669;50.206;9.998;2023-07-20T09:48:14;2.83;;;2.63;;
1350;SDS011;669;50.206;9.998;2023-07-20T09:50:49;3.80;;;2.43;;
1350;SDS011;669;50.206;9.998;2023-07-20T09:53:18;4.00;;;2.50;;
1350;SDS011;669;50.206;9.998;2023-07-20T09:55:46;2.50;;;2.13;;
1350;SDS011;669;50.206;9.998;2023-07-20T09:58:16;3.07;;;2.50;;
1350;SDS011;669;50.206;9.998;2023-07-20T10:00:45;4.23;;;2.73;;
1350;SDS011;669;50.206;9.998;2023-07-20T10:03:19;3.30;;;2.30;;
1350;SDS011;669;50.206;9.998;2023-07-20T10:05:48;1.97;;;1.87;;
1350;SDS011;669;50.206;9.998;2023-07-20T10:08:20;3.37;;;2.30;;
1350;SDS011;669;50.206;9.998;2023-07-20T10:10:53;3.40;;;2.10;;
1350;SDS011;669;50.206;9.998;2023-07-20T10:13:25;2.03;;;1.93;;
1350;SDS011;669;50.206;9.998;2023-07-20T10:15:54;2.67;;;2.43;;
1350;SDS011;669;50.206;9.998;2023-07-20T10:18:29;2.23;;;2.10;;
1350;SDS011;669;50.206;9.998;2023-07-20T10:21:01;2.30;;;2.10;;
1350;SDS011;669;50.206;9.998;2023-07-20T10:23:34;2.67;;;2.57;;
1350;SDS011;669;50.206;9.998;2023-07-20T10:26:02;3.93;;;2.73;;
1350;SDS011;669;50.206;9.998;2023-07-20T10:28:31;3.07;;;2.13;;
1350;SDS011;669;50.206;9.998;2023-07-20T10:30:59;2.27;;;2.07;;
1350;SDS011;669;50.206;9.998;2023-07-20T10:33:27;2.67;;;2.47;;
1350;SDS011;669;50.206;9.998;2023-07-20T10:35:56;2.07;;;1.97;;
1350;SDS011;669;50.206;9.998;2023-07-20T10:41:21;2.20;;;2.00;;
1350;SDS011;669;50.206;9.998;2023-07-20T10:43:55;2.60;;;1.93;;
1350;SDS011;669;50.206;9.998;2023-07-20T10:46:42;1.87;;;1.77;;
1350;SDS011;669;50.206;9.998;2023-07-20T10:49:12;2.10;;;1.90;;
1350;SDS011;669;50.206;9.998;2023-07-20T10:51:42;2.17;;;1.98;;
1350;SDS011;669;50.206;9.998;2023-07-20T10:57:23;1.93;;;1.83;;
1350;SDS011;669;50.206;9.998;2023-07-20T10:59:54;2.30;;;1.47;;
1350;SDS011;669;50.206;9.998;2023-07-20T11:02:41;2.27;;;2.03;;
1350;SDS011;669;50.206;9.998;2023-07-20T11:05:31;2.57;;;2.20;;
1350;SDS011;669;50.206;9.998;2023-07-20T11:08:03;1.90;;;1.80;;
1350;SDS011;669;50.206;9.998;2023-07-20T11:10:31;1.87;;;1.70;;
1350;SDS011;669;50.206;9.998;2023-07-20T11:16:02;1.97;;;1.77;;
1350;SDS011;669;50.206;9.998;2023-07-20T11:18:34;1.57;;;1.50;;
1350;SDS011;669;50.206;9.998;2023-07-20T11:21:07;2.70;;;2.17;;
1350;SDS011;669;50.206;9.998;2023-07-20T11:23:37;1.90;;;1.40;;
1350;SDS011;669;50.206;9.998;2023-07-20T11:26:06;2.17;;;1.70;;
1350;SDS011;669;50.206;9.998;2023-07-20T11:28:34;2.00;;;1.60;;
1350;SDS011;669;50.206;9.998;2023-07-20T11:31:03;1.70;;;1.60;;
1350;SDS011;669;50.206;9.998;2023-07-20T11:33:31;1.93;;;1.83;;
1350;SDS011;669;50.206;9.998;2023-07-20T11:35:59;1.60;;;1.50;;
1350;SDS011;669;50.206;9.998;2023-07-20T11:38:28;3.27;;;1.70;;
1350;SDS011;669;50.206;9.998;2023-07-20T11:40:56;3.60;;;1.90;;
1350;SDS011;669;50.206;9.998;2023-07-20T11:43:24;1.50;;;1.27;;
1350;SDS011;669;50.206;9.998;2023-07-20T11:45:52;1.93;;;1.80;;
1350;SDS011;669;50.206;9.998;2023-07-20T11:48:22;1.47;;;1.20;;
1350;SDS011;669;50.206;9.998;2023-07-20T11:50:50;1.40;;;1.30;;
1350;SDS011;669;50.206;9.998;2023-07-20T11:53:18;1.67;;;1.57;;
1350;SDS011;669;50.206;9.998;2023-07-20T11:55:47;3.03;;;2.10;;
1350;SDS011;669;50.206;9.998;2023-07-20T11:58:15;1.30;;;1.20;;
1350;SDS011;669;50.206;9.998;2023-07-20T12:00:44;3.00;;;1.97;;
1350;SDS011;669;50.206;9.998;2023-07-20T12:03:12;1.40;;;1.30;;
1350;SDS011;669;50.206;9.998;2023-07-20T12:05:42;4.53;;;1.27;;
1350;SDS011;669;50.206;9.998;2023-07-20T12:08:27;0.93;;;0.93;;
1350;SDS011;669;50.206;9.998;2023-07-20T12:10:55;1.60;;;1.10;;
1350;SDS011;669;50.206;9.998;2023-07-20T12:13:23;1.43;;;1.33;;
1350;SDS011;669;50.206;9.998;2023-07-20T12:15:52;1.23;;;1.00;;
1350;SDS011;669;50.206;9.998;2023-07-20T12:18:22;1.10;;;1.10;;
1350;SDS011;669;50.206;9.998;2023-07-20T12:20:58;1.17;;;1.13;;
1350;SDS011;669;50.206;9.998;2023-07-20T12:23:26;1.47;;;1.37;;
1350;SDS011;669;50.206;9.998;2023-07-20T12:25:56;3.27;;;1.50;;
1350;SDS011;669;50.206;9.998;2023-07-20T12:28:24;2.73;;;1.50;;
1350;SDS011;669;50.206;9.998;2023-07-20T12:30:52;2.10;;;1.80;;
1350;SDS011;669;50.206;9.998;2023-07-20T12:33:23;1.67;;;1.27;;
1350;SDS011;669;50.206;9.998;2023-07-20T12:35:53;2.07;;;1.93;;
1350;SDS011;669;50.206;9.998;2023-07-20T12:38:22;1.60;;;1.50;;
1350;SDS011;669;50.206;9.998;2023-07-20T12:40:50;2.03;;;1.50;;
1350;SDS011;669;50.206;9.998;2023-07-20T12:43:21;3.40;;;1.40;;
1350;SDS011;669;50.206;9.998;2023-07-20T12:45:49;1.60;;;1.50;;
1350;SDS011;669;50.206;9.998;2023-07-20T12:48:17;1.53;;;1.43;;
1350;SDS011;669;50.206;9.998;2023-07-20T12:50:45;1.53;;;1.43;;
1350;SDS011;669;50.206;9.998;2023-07-20T12:53:15;3.20;;;1.47;;
1350;SDS011;669;50.206;9.998;2023-07-20T12:55:43;2.23;;;1.60;;
1350;SDS011;669;50.206;9.998;2023-07-20T12:58:11;1.63;;;1.40;;
1350;SDS011;669;50.206;9.998;2023-07-20T13:00:40;1.53;;;1.40;;
1350;SDS011;669;50.206;9.998;2023-07-20T13:03:08;1.90;;;1.40;;
1350;SDS011;669;50.206;9.998;2023-07-20T13:05:55;1.50;;;1.40;;
1350;SDS011;669;50.206;9.998;2023-07-20T13:08:28;1.50;;;1.40;;
1350;SDS011;669;50.206;9.998;2023-07-20T13:10:56;5.40;;;1.50;;
1350;SDS011;669;50.206;9.998;2023-07-20T13:13:24;3.83;;;1.70;;
1350;SDS011;669;50.206;9.998;2023-07-20T13:15:52;1.63;;;1.53;;
1350;SDS011;669;50.206;9.998;2023-07-20T13:18:20;1.50;;;1.40;;
1350;SDS011;669;50.206;9.998;2023-07-20T13:20:49;2.03;;;1.27;;
1350;SDS011;669;50.206;9.998;2023-07-20T13:23:16;1.53;;;1.50;;
1350;SDS011;669;50.206;9.998;2023-07-20T13:25:46;1.77;;;1.67;;
1350;SDS011;669;50.206;9.998;2023-07-20T13:28:14;2.90;;;1.83;;
1350;SDS011;669;50.206;9.998;2023-07-20T13:30:42;1.80;;;1.60;;
1350;SDS011;669;50.206;9.998;2023-07-20T13:33:11;1.83;;;1.73;;
1350;SDS011;669;50.206;9.998;2023-07-20T13:35:43;2.33;;;1.37;;
1350;SDS011;669;50.206;9.998;2023-07-20T13:38:15;1.40;;;1.30;;
1350;SDS011;669;50.206;9.998;2023-07-20T13:40:43;1.50;;;1.00;;
1350;SDS011;669;50.206;9.998;2023-07-20T13:43:12;1.30;;;1.30;;
1350;SDS011;669;50.206;9.998;2023-07-20T13:45:40;1.77;;;1.43;;
1350;SDS011;669;50.206;9.998;2023-07-20T13:48:09;2.37;;;2.17;;
1350;SDS011;669;50.206;9.998;2023-07-20T13:50:37;4.23;;;1.93;;
1350;SDS011;669;50.206;9.998;2023-07-20T13:53:24;1.77;;;1.57;;
1350;SDS011;669;50.206;9.998;2023-07-20T13:55:58;2.13;;;1.80;;
1350;SDS011;669;50.206;9.998;2023-07-20T13:58:29;2.23;;;1.57;;
1350;SDS011;669;50.206;9.998;2023-07-20T14:00:57;2.63;;;1.33;;
1350;SDS011;669;50.206;9.998;2023-07-20T14:03:25;1.30;;;1.20;;
1350;SDS011;669;50.206;9.998;2023-07-20T14:05:53;1.70;;;1.60;;
1350;SDS011;669;50.206;9.998;2023-07-20T14:08:24;1.40;;;1.30;;
1350;SDS011;669;50.206;9.998;2023-07-20T14:10:52;2.20;;;1.77;;
1350;SDS011;669;50.206;9.998;2023-07-20T14:13:24;2.63;;;1.60;;
1350;SDS011;669;50.206;9.998;2023-07-20T14:16:07;1.37;;;1.30;;
1350;SDS011;669;50.206;9.998;2023-07-20T14:18:36;1.53;;;1.40;;
1350;SDS011;669;50.206;9.998;2023-07-20T14:21:04;2.20;;;1.33;;
1350;SDS011;669;50.206;9.998;2023-07-20T14:23:34;2.57;;;1.90;;
1350;SDS011;669;50.206;9.998;2023-07-20T14:26:03;1.73;;;1.63;;
1350;SDS011;669;50.206;9.998;2023-07-20T14:28:37;1.80;;;1.70;;
1350;SDS011;669;50.206;9.998;2023-07-20T14:31:05;2.20;;;1.37;;
1350;SDS011;669;50.206;9.998;2023-07-20T14:33:33;1.70;;;1.60;;
1350;SDS011;669;50.206;9.998;2023-07-20T14:36:01;1.67;;;1.57;;
1350;SDS011;669;50.206;9.998;2023-07-20T14:38:31;3.07;;;1.40;;
1350;SDS011;669;50.206;9.998;2023-07-20T14:40:59;1.87;;;1.77;;
1350;SDS011;669;50.206;9.998;2023-07-20T14:43:27;1.50;;;1.40;;
1350;SDS011;669;50.206;9.998;2023-07-20T14:45:56;2.90;;;2.03;;
1350;SDS011;669;50.206;9.998;2023-07-20T14:48:24;2.20;;;2.10;;
1350;SDS011;669;50.206;9.998;2023-07-20T14:50:53;7.53;;;2.30;;
1350;SDS011;669;50.206;9.998;2023-07-20T14:53:30;3.37;;;2.03;;
1350;SDS011;669;50.206;9.998;2023-07-20T14:56:01;2.17;;;1.50;;
1350;SDS011;669;50.206;9.998;2023-07-20T14:58:29;2.57;;;2.37;;
1350;SDS011;669;50.206;9.998;2023-07-20T15:01:02;2.17;;;2.00;;
1350;SDS011;669;50.206;9.998;2023-07-20T15:03:30;2.20;;;2.10;;
1350;SDS011;669;50.206;9.998;2023-07-20T15:05:59;1.80;;;1.70;;
1350;SDS011;669;50.206;9.998;2023-07-20T15:08:28;2.33;;;2.23;;
1350;SDS011;669;50.206;9.998;2023-07-20T15:10:57;2.30;;;2.10;;
1350;SDS011;669;50.206;9.998;2023-07-20T15:13:25;2.50;;;2.30;;
1350;SDS011;669;50.206;9.998;2023-07-20T15:15:53;2.93;;;2.73;;
1350;SDS011;669;50.206;9.998;2023-07-20T15:18:22;2.20;;;2.10;;
1350;SDS011;669;50.206;9.998;2023-07-20T15:21:03;2.43;;;2.23;;
1350;SDS011;669;50.206;9.998;2023-07-20T15:23:31;3.10;;;2.80;;
1350;SDS011;669;50.206;9.998;2023-07-20T15:25:59;2.87;;;2.60;;
1350;SDS011;669;50.206;9.998;2023-07-20T15:28:26;2.90;;;2.70;;
1350;SDS011;669;50.206;9.998;2023-07-20T15:30:58;3.20;;;2.87;;
1350;SDS011;669;50.206;9.998;2023-07-20T15:33:28;4.57;;;3.20;;
1350;SDS011;669;50.206;9.998;2023-07-20T15:35:57;3.47;;;2.80;;
1350;SDS011;669;50.206;9.998;2023-07-20T15:38:25;2.60;;;2.40;;
1350;SDS011;669;50.206;9.998;2023-07-20T15:40:53;2.57;;;2.37;;
1350;SDS011;669;50.206;9.998;2023-07-20T15:43:21;3.20;;;3.00;;
1350;SDS011;669;50.206;9.998;2023-07-20T15:45:49;2.70;;;2.50;;
1350;SDS011;669;50.206;9.998;2023-07-20T15:48:17;2.73;;;2.53;;
1350;SDS011;669;50.206;9.998;2023-07-20T15:50:47;2.37;;;2.07;;
1350;SDS011;669;50.206;9.998;2023-07-20T15:53:19;4.10;;;2.47;;
1350;SDS011;669;50.206;9.998;2023-07-20T15:55:52;5.53;;;2.50;;